Pagina principale
METAR-TAF:

METAR-TAF

Aeroporti :

Shawbury, Inghilterra

latitudine: 52-48N, longitudine: 002-40W, altezza: 76 m

Osservazione

Il bollettino è stato emesso 47 minuti fa, alle 21:50 UTC
Vento 6 kt da ovest/sud-ovest
Temperature 19°C
Umidità 78%
Pressione 1020 hPa
Visibilità 10 km o più

METAR: EGOS 222150Z AUTO 24006KT 9999 BKN028/// 19/15 Q1020

Ora: 23:37 (22:37 UTC)

Previsione

Il bollettino è stato emesso 9 ore e 5 minuti fa, alle 13:32 UTC
Previsione valida dal 22 alle 15 UTC al 22 alle 18 UTC
Vento 13 kt da ovest/sud-ovest con raffiche fino a 23 kt
Visibilità 10 km o più
Nubi sparse ad un'altezza di 3500 ft
Evoluzione graduale
dal 22 alle 15 UTC al 22 alle 17 UTC
Vento 12 kt da sud-ovest

TAF: EGOS 221332Z 2215/2218 24013G23KT 9999 SCT035 BECMG 2215/2217 22012KT

Osservazioni e previsioni meteorologiche di più di 4000 aeroporti (messaggi METAR e TAF).

Le stazioni disponibili sono rappresentate dai dischi gialli e rossi sulla carta.

Puntare il mouse per vedere il nome della stazione.

Clicca sopra per visualizzare le osservazioni e previsioni meteorologiche.

Per cambiare la mappa : fare clic sui pulsanti verdi con una croce nera per ingrandire, il pulsante verde con un trattino per diminuire, o sulla freccia verde per le mappe adiacenti.


METAR-TAF: